地図

経路データ

SID SEASON NUMBER BASIN SUBBASIN NAME ISO_TIME NATURE LAT LON WMO_WIND WMO_PRES WMO_AGENCY TRACK_TYPE DIST2LAND LANDFALL IFLAG USA_AGENCY USA_ATCF_ID USA_LAT USA_LON USA_RECORD USA_STATUS USA_WIND USA_PRES USA_SSHS USA_R34_NE USA_R34_SE USA_R34_SW USA_R34_NW USA_R50_NE USA_R50_SE USA_R50_SW USA_R50_NW USA_R64_NE USA_R64_SE USA_R64_SW USA_R64_NW USA_POCI USA_ROCI USA_RMW USA_EYE TOKYO_LAT TOKYO_LON TOKYO_GRADE TOKYO_WIND TOKYO_PRES TOKYO_R50_DIR TOKYO_R50_LONG TOKYO_R50_SHORT TOKYO_R30_DIR TOKYO_R30_LONG TOKYO_R30_SHORT TOKYO_LAND CMA_LAT CMA_LON CMA_CAT CMA_WIND CMA_PRES HKO_LAT HKO_LON HKO_CAT HKO_WIND HKO_PRES NEWDELHI_LAT NEWDELHI_LON NEWDELHI_GRADE NEWDELHI_WIND NEWDELHI_PRES NEWDELHI_CI NEWDELHI_DP NEWDELHI_POCI REUNION_LAT REUNION_LON REUNION_TYPE REUNION_WIND REUNION_PRES REUNION_TNUM REUNION_CI REUNION_RMW REUNION_R34_NE REUNION_R34_SE REUNION_R34_SW REUNION_R34_NW REUNION_R50_NE REUNION_R50_SE REUNION_R50_SW REUNION_R50_NW REUNION_R64_NE REUNION_R64_SE REUNION_R64_SW REUNION_R64_NW BOM_LAT BOM_LON BOM_TYPE BOM_WIND BOM_PRES BOM_TNUM BOM_CI BOM_RMW BOM_R34_NE BOM_R34_SE BOM_R34_SW BOM_R34_NW BOM_R50_NE BOM_R50_SE BOM_R50_SW BOM_R50_NW BOM_R64_NE BOM_R64_SE BOM_R64_SW BOM_R64_NW BOM_ROCI BOM_POCI BOM_EYE BOM_POS_METHOD BOM_PRES_METHOD NADI_LAT NADI_LON NADI_CAT NADI_WIND NADI_PRES WELLINGTON_LAT WELLINGTON_LON WELLINGTON_WIND WELLINGTON_PRES DS824_LAT DS824_LON DS824_STAGE DS824_WIND DS824_PRES TD9636_LAT TD9636_LON TD9636_STAGE TD9636_WIND TD9636_PRES TD9635_LAT TD9635_LON TD9635_WIND TD9635_PRES TD9635_ROCI NEUMANN_LAT NEUMANN_LON NEUMANN_CLASS NEUMANN_WIND NEUMANN_PRES MLC_LAT MLC_LON MLC_CLASS MLC_WIND MLC_PRES USA_GUST BOM_GUST BOM_GUST_PER REUNION_GUST REUNION_GUST_PER USA_SEAHGT USA_SEARAD_NE USA_SEARAD_SE USA_SEARAD_SW USA_SEARAD_NW STORM_SPEED STORM_DIR
1996161N17063 1996 40 NI AS NOT_NAMED 1996-06-09 00:00:00 NR 16.6000 62.7000 main 584 564 O_____________ jtwc_io IO021996 16.6000 62.7000 15 -1 4 321
1996161N17063 1996 40 NI AS NOT_NAMED 1996-06-09 03:00:00 NR 16.7600 62.5601 main 564 540 P_____________ IO021996 16.7600 62.5601 15 -1 4 316
1996161N17063 1996 40 NI AS NOT_NAMED 1996-06-09 06:00:00 NR 16.9000 62.4000 main 540 516 O_____________ jtwc_io IO021996 16.9000 62.4000 15 -1 4 306
1996161N17063 1996 40 NI AS NOT_NAMED 1996-06-09 09:00:00 NR 17.0075 62.2075 main 516 492 P_____________ IO021996 17.0075 62.2075 15 -1 4 298
1996161N17063 1996 40 NI AS NOT_NAMED 1996-06-09 12:00:00 NR 17.1000 62.0000 main 492 468 O_____________ jtwc_io IO021996 17.1000 62.0000 15 -1 4 297
1996161N17063 1996 40 NI AS NOT_NAMED 1996-06-09 15:00:00 NR 17.2000 61.8075 main 468 444 P_____________ IO021996 17.2000 61.8075 17 -1 4 298
1996161N17063 1996 40 NI AS NOT_NAMED 1996-06-09 18:00:00 NR 17.3000 61.6000 main 444 420 O_____________ jtwc_io IO021996 17.3000 61.6000 20 -1 5 295
1996161N17063 1996 40 NI AS NOT_NAMED 1996-06-09 21:00:00 NR 17.4000 61.3575 main 420 386 P_____________ IO021996 17.4000 61.3575 22 -1 5 293
1996161N17063 1996 40 NI AS NOT_NAMED 1996-06-10 00:00:00 NR 17.5000 61.1000 main 386 362 O_____________ jtwc_io IO021996 17.5000 61.1000 25 -1 5 293
1996161N17063 1996 40 NI AS NOT_NAMED 1996-06-10 03:00:00 NR 17.5999 60.8575 main 362 329 P_____________ IO021996 17.5999 60.8575 25 -1 5 293
1996161N17063 1996 40 NI AS NOT_NAMED 1996-06-10 06:00:00 NR 17.7000 60.6000 main 329 295 O_____________ jtwc_io IO021996 17.7000 60.6000 25 -1 6 290
1996161N17063 1996 40 NI AS NOT_NAMED 1996-06-10 09:00:00 NR 17.7924 60.3149 main 295 262 P_____________ IO021996 17.7924 60.3149 27 -1 6 289
1996161N17063 1996 40 NI AS NOT_NAMED 1996-06-10 12:00:00 NR 17.9000 60.0000 main 262 229 O_____________ jtwc_io IO021996 17.9000 60.0000 30 -1 7 291
1996161N17063 1996 40 NI AS NOT_NAMED 1996-06-10 15:00:00 NR 18.0350 59.6500 main 220 181 P_____________ IO021996 18.0350 59.6500 32 -1 7 294
1996161N17063 1996 40 NI AS NOT_NAMED 1996-06-10 18:00:00 NR 18.2000 59.3000 main 181 143 O_____________ jtwc_io IO021996 18.2000 59.3000 35 0 7 299
1996161N17063 1996 40 NI AS NOT_NAMED 1996-06-10 21:00:00 NR 18.3774 58.9998 main 143 104 P_____________ IO021996 18.3774 58.9998 37 0 7 305
1996161N17063 1996 40 NI AS NOT_NAMED 1996-06-11 00:00:00 NR 18.6000 58.7000 main 104 66 O_____________ jtwc_io IO021996 18.6000 58.7000 40 0 8 308
1996161N17063 1996 40 NI AS NOT_NAMED 1996-06-11 03:00:00 NR 18.8626 58.3350 main 53 23 P_____________ IO021996 18.8626 58.3350 40 0 9 312
1996161N17063 1996 40 NI AS NOT_NAMED 1996-06-11 06:00:00 NR 19.2000 58.0000 main 30 10 O_____________ jtwc_io IO021996 19.2000 58.0000 40 0 10 326
1996161N17063 1996 40 NI AS NOT_NAMED 1996-06-11 09:00:00 NR 19.6499 57.7774 main 10 0 P_____________ IO021996 19.6499 57.7774 37 0 10 337
1996161N17063 1996 40 NI AS NOT_NAMED 1996-06-11 12:00:00 NR 20.1000 57.6000 main 0 0 O_____________ jtwc_io IO021996 20.1000 57.6000 35 0 9 337
1996161N17063 1996 40 NI AS NOT_NAMED 1996-06-11 15:00:00 NR 20.4449 57.4223 main 0 0 P_____________ IO021996 20.4449 57.4223 35 0 7 328
1996161N17063 1996 40 NI AS NOT_NAMED 1996-06-11 18:00:00 NR 20.7000 57.2000 main 0 0 O_____________ jtwc_io IO021996 20.7000 57.2000 35 0 7 311
1996161N17063 1996 40 NI AS NOT_NAMED 1996-06-11 21:00:00 NR 20.8951 56.8651 main 0 0 P_____________ IO021996 20.8951 56.8651 32 -1 7 295
1996161N17063 1996 40 NI AS NOT_NAMED 1996-06-12 00:00:00 NR 21.0000 56.5000 main 0 0 O_____________ jtwc_io IO021996 21.0000 56.5000 30 -1 6 281
1996161N17063 1996 40 NI AS NOT_NAMED 1996-06-12 03:00:00 NR 21.0224 56.1848 main 0 0 P_____________ IO021996 21.0224 56.1848 25 -1 6 270
1996161N17063 1996 40 NI AS NOT_NAMED 1996-06-12 06:00:00 NR 21.0000 55.9000 main 0 0 O_____________ jtwc_io IO021996 21.0000 55.9000 20 -1 5 267
1996161N17063 1996 40 NI AS NOT_NAMED 1996-06-12 09:00:00 NR 20.9926 55.6426 main 0 0 P_____________ IO021996 20.9926 55.6426 17 -1 5 270
1996161N17063 1996 40 NI AS NOT_NAMED 1996-06-12 12:00:00 NR 21.0000 55.4000 main 0 O_____________ jtwc_io IO021996 21.0000 55.4000 15 -1 5 272

IBTrACS Databaseについて

本データベースは、米国NOAAが公開する1842年以降の世界の熱帯低気圧のベストトラックデータアーカイブInternational Best Track Archive for Climate Stewardship (IBTrACS)を、ウェブで閲覧しやすい形式に変換したものです。

最終更新日:2021-10-27